<?xml version="1.0" encoding="UTF-8" standalone="no" ?>
<gpx xmlns="http://www.topografix.com/GPX/1/1" xmlns:xsi="http://www.w3.org/2001/XMLSchema-instance" xsi:schemaLocation="http://www.topografix.com/GPX/1/1 http://www.topografix.com/GPX/1/1/gpx.xsd" version="1.1" creator="VisuGPX - https://www.visugpx.com">
  <metadata>
    <name>Le sentier du bois de Lèque</name>
    <desc><![CDATA[Petite balade près des Matelles]]></desc>
  </metadata>
  <trk>
    <name><![CDATA[Bois de Lcqueeeeeee]]></name>
    <desc><![CDATA[Total: 3.5km]]></desc>
    <trkseg>
      <trkpt lat="43.7356" lon="3.81484">
        <ele>119.82</ele>
        <time>2014-08-17T12:44:05Z</time>
      </trkpt>
      <trkpt lat="43.73557" lon="3.81477">
        <ele>120.3</ele>
        <time>2014-08-17T12:44:17Z</time>
      </trkpt>
      <trkpt lat="43.73558" lon="3.81471">
        <ele>119.82</ele>
        <time>2014-08-17T12:44:21Z</time>
      </trkpt>
      <trkpt lat="43.73563" lon="3.81459">
        <ele>123.19</ele>
        <time>2014-08-17T12:44:32Z</time>
      </trkpt>
      <trkpt lat="43.73564" lon="3.81449">
        <ele>123.19</ele>
        <time>2014-08-17T12:44:40Z</time>
      </trkpt>
      <trkpt lat="43.73574" lon="3.81421">
        <ele>124.63</ele>
        <time>2014-08-17T12:44:56Z</time>
      </trkpt>
      <trkpt lat="43.7358" lon="3.81399">
        <ele>127.03</ele>
        <time>2014-08-17T12:45:12Z</time>
      </trkpt>
      <trkpt lat="43.73586" lon="3.81381">
        <ele>127.99</ele>
        <time>2014-08-17T12:45:24Z</time>
      </trkpt>
      <trkpt lat="43.73587" lon="3.81358">
        <ele>128.95</ele>
        <time>2014-08-17T12:45:38Z</time>
      </trkpt>
      <trkpt lat="43.7358" lon="3.8135">
        <ele>130.4</ele>
        <time>2014-08-17T12:45:45Z</time>
      </trkpt>
      <trkpt lat="43.7358" lon="3.8132">
        <ele>131.36</ele>
        <time>2014-08-17T12:46:01Z</time>
      </trkpt>
      <trkpt lat="43.73587" lon="3.81297">
        <ele>134.24</ele>
        <time>2014-08-17T12:46:17Z</time>
      </trkpt>
      <trkpt lat="43.73589" lon="3.81294">
        <ele>135.2</ele>
        <time>2014-08-17T12:46:19Z</time>
      </trkpt>
      <trkpt lat="43.73599" lon="3.81277">
        <ele>137.61</ele>
        <time>2014-08-17T12:46:33Z</time>
      </trkpt>
      <trkpt lat="43.73608" lon="3.81259">
        <ele>136.64</ele>
        <time>2014-08-17T12:46:45Z</time>
      </trkpt>
      <trkpt lat="43.73612" lon="3.81237">
        <ele>136.64</ele>
        <time>2014-08-17T12:46:58Z</time>
      </trkpt>
      <trkpt lat="43.7362" lon="3.81221">
        <ele>138.57</ele>
        <time>2014-08-17T12:47:10Z</time>
      </trkpt>
      <trkpt lat="43.73629" lon="3.81213">
        <ele>142.41</ele>
        <time>2014-08-17T12:47:23Z</time>
      </trkpt>
      <trkpt lat="43.7364" lon="3.812">
        <ele>145.3</ele>
        <time>2014-08-17T12:47:37Z</time>
      </trkpt>
      <trkpt lat="43.73652" lon="3.81186">
        <ele>148.18</ele>
        <time>2014-08-17T12:47:53Z</time>
      </trkpt>
      <trkpt lat="43.73657" lon="3.81178">
        <ele>150.1</ele>
        <time>2014-08-17T12:48:01Z</time>
      </trkpt>
      <trkpt lat="43.73658" lon="3.81176">
        <ele>150.58</ele>
        <time>2014-08-17T12:48:03Z</time>
      </trkpt>
      <trkpt lat="43.73674" lon="3.81165">
        <ele>153.47</ele>
        <time>2014-08-17T12:48:20Z</time>
      </trkpt>
      <trkpt lat="43.73687" lon="3.81164">
        <ele>155.39</ele>
        <time>2014-08-17T12:48:35Z</time>
      </trkpt>
      <trkpt lat="43.73698" lon="3.81175">
        <ele>158.75</ele>
        <time>2014-08-17T12:48:49Z</time>
      </trkpt>
      <trkpt lat="43.73708" lon="3.81179">
        <ele>161.16</ele>
        <time>2014-08-17T12:49:04Z</time>
      </trkpt>
      <trkpt lat="43.73716" lon="3.81178">
        <ele>163.08</ele>
        <time>2014-08-17T12:49:23Z</time>
      </trkpt>
      <trkpt lat="43.73728" lon="3.8117">
        <ele>166.45</ele>
        <time>2014-08-17T12:49:36Z</time>
      </trkpt>
      <trkpt lat="43.73734" lon="3.81164">
        <ele>167.89</ele>
        <time>2014-08-17T12:49:43Z</time>
      </trkpt>
      <trkpt lat="43.73736" lon="3.81165">
        <ele>168.37</ele>
        <time>2014-08-17T12:49:45Z</time>
      </trkpt>
      <trkpt lat="43.73739" lon="3.81167">
        <ele>168.37</ele>
        <time>2014-08-17T12:49:49Z</time>
      </trkpt>
      <trkpt lat="43.73748" lon="3.8118">
        <ele>172.21</ele>
        <time>2014-08-17T12:50:05Z</time>
      </trkpt>
      <trkpt lat="43.7376" lon="3.81191">
        <ele>175.1</ele>
        <time>2014-08-17T12:50:22Z</time>
      </trkpt>
      <trkpt lat="43.73773" lon="3.812">
        <ele>177.98</ele>
        <time>2014-08-17T12:50:40Z</time>
      </trkpt>
      <trkpt lat="43.73779" lon="3.81206">
        <ele>179.9</ele>
        <time>2014-08-17T12:50:58Z</time>
      </trkpt>
      <trkpt lat="43.7379" lon="3.81211">
        <ele>181.35</ele>
        <time>2014-08-17T12:51:15Z</time>
      </trkpt>
      <trkpt lat="43.73803" lon="3.81219">
        <ele>184.23</ele>
        <time>2014-08-17T12:51:31Z</time>
      </trkpt>
      <trkpt lat="43.73812" lon="3.81223">
        <ele>187.11</ele>
        <time>2014-08-17T12:51:41Z</time>
      </trkpt>
      <trkpt lat="43.73823" lon="3.81232">
        <ele>189.04</ele>
        <time>2014-08-17T12:51:56Z</time>
      </trkpt>
      <trkpt lat="43.73826" lon="3.81234">
        <ele>190.48</ele>
        <time>2014-08-17T12:51:59Z</time>
      </trkpt>
      <trkpt lat="43.73836" lon="3.8124">
        <ele>193.36</ele>
        <time>2014-08-17T12:52:13Z</time>
      </trkpt>
      <trkpt lat="43.73842" lon="3.81244">
        <ele>194.32</ele>
        <time>2014-08-17T12:52:29Z</time>
      </trkpt>
      <trkpt lat="43.73852" lon="3.81251">
        <ele>196.25</ele>
        <time>2014-08-17T12:52:43Z</time>
      </trkpt>
      <trkpt lat="43.73853" lon="3.81252">
        <ele>196.25</ele>
        <time>2014-08-17T12:52:44Z</time>
      </trkpt>
      <trkpt lat="43.73864" lon="3.81263">
        <ele>200.09</ele>
        <time>2014-08-17T12:53:00Z</time>
      </trkpt>
      <trkpt lat="43.73871" lon="3.8127">
        <ele>201.05</ele>
        <time>2014-08-17T12:53:10Z</time>
      </trkpt>
      <trkpt lat="43.73884" lon="3.81281">
        <ele>204.42</ele>
        <time>2014-08-17T12:53:25Z</time>
      </trkpt>
      <trkpt lat="43.73889" lon="3.81286">
        <ele>205.86</ele>
        <time>2014-08-17T12:53:42Z</time>
      </trkpt>
      <trkpt lat="43.73896" lon="3.81292">
        <ele>206.82</ele>
        <time>2014-08-17T12:53:59Z</time>
      </trkpt>
      <trkpt lat="43.73909" lon="3.813">
        <ele>209.7</ele>
        <time>2014-08-17T12:54:15Z</time>
      </trkpt>
      <trkpt lat="43.73919" lon="3.81301">
        <ele>213.07</ele>
        <time>2014-08-17T12:54:27Z</time>
      </trkpt>
      <trkpt lat="43.73934" lon="3.81308">
        <ele>215.95</ele>
        <time>2014-08-17T12:54:43Z</time>
      </trkpt>
      <trkpt lat="43.73949" lon="3.81314">
        <ele>219.32</ele>
        <time>2014-08-17T12:54:59Z</time>
      </trkpt>
      <trkpt lat="43.73963" lon="3.81319">
        <ele>221.72</ele>
        <time>2014-08-17T12:55:14Z</time>
      </trkpt>
      <trkpt lat="43.73978" lon="3.81324">
        <ele>224.12</ele>
        <time>2014-08-17T12:55:30Z</time>
      </trkpt>
      <trkpt lat="43.73986" lon="3.81325">
        <ele>226.05</ele>
        <time>2014-08-17T12:55:46Z</time>
      </trkpt>
      <trkpt lat="43.73988" lon="3.81325">
        <ele>226.05</ele>
        <time>2014-08-17T12:56:27Z</time>
      </trkpt>
      <trkpt lat="43.73989" lon="3.81326">
        <ele>226.05</ele>
        <time>2014-08-17T12:56:32Z</time>
      </trkpt>
      <trkpt lat="43.73993" lon="3.81326">
        <ele>226.53</ele>
        <time>2014-08-17T12:56:36Z</time>
      </trkpt>
      <trkpt lat="43.74009" lon="3.81328">
        <ele>228.93</ele>
        <time>2014-08-17T12:56:52Z</time>
      </trkpt>
      <trkpt lat="43.74011" lon="3.81328">
        <ele>229.89</ele>
        <time>2014-08-17T12:56:54Z</time>
      </trkpt>
      <trkpt lat="43.74013" lon="3.81326">
        <ele>230.37</ele>
        <time>2014-08-17T12:56:56Z</time>
      </trkpt>
      <trkpt lat="43.74028" lon="3.81323">
        <ele>232.78</ele>
        <time>2014-08-17T12:57:12Z</time>
      </trkpt>
      <trkpt lat="43.7404" lon="3.8132">
        <ele>234.7</ele>
        <time>2014-08-17T12:57:24Z</time>
      </trkpt>
      <trkpt lat="43.74055" lon="3.81314">
        <ele>237.58</ele>
        <time>2014-08-17T12:57:40Z</time>
      </trkpt>
      <trkpt lat="43.74067" lon="3.813">
        <ele>240.95</ele>
        <time>2014-08-17T12:57:55Z</time>
      </trkpt>
      <trkpt lat="43.74076" lon="3.81288">
        <ele>243.35</ele>
        <time>2014-08-17T12:58:08Z</time>
      </trkpt>
      <trkpt lat="43.74087" lon="3.81277">
        <ele>243.83</ele>
        <time>2014-08-17T12:58:22Z</time>
      </trkpt>
      <trkpt lat="43.7409" lon="3.81274">
        <ele>245.75</ele>
        <time>2014-08-17T12:58:26Z</time>
      </trkpt>
      <trkpt lat="43.74093" lon="3.81271">
        <ele>246.72</ele>
        <time>2014-08-17T12:58:49Z</time>
      </trkpt>
      <trkpt lat="43.74104" lon="3.81256">
        <ele>249.12</ele>
        <time>2014-08-17T12:59:05Z</time>
      </trkpt>
      <trkpt lat="43.74119" lon="3.8125">
        <ele>250.56</ele>
        <time>2014-08-17T12:59:21Z</time>
      </trkpt>
      <trkpt lat="43.74135" lon="3.81245">
        <ele>253.93</ele>
        <time>2014-08-17T12:59:36Z</time>
      </trkpt>
      <trkpt lat="43.74154" lon="3.81239">
        <ele>256.33</ele>
        <time>2014-08-17T12:59:52Z</time>
      </trkpt>
      <trkpt lat="43.7417" lon="3.8123">
        <ele>257.77</ele>
        <time>2014-08-17T13:00:07Z</time>
      </trkpt>
      <trkpt lat="43.74191" lon="3.81224">
        <ele>259.69</ele>
        <time>2014-08-17T13:00:24Z</time>
      </trkpt>
      <trkpt lat="43.74211" lon="3.81217">
        <ele>261.62</ele>
        <time>2014-08-17T13:00:41Z</time>
      </trkpt>
      <trkpt lat="43.74231" lon="3.81203">
        <ele>263.06</ele>
        <time>2014-08-17T13:00:59Z</time>
      </trkpt>
      <trkpt lat="43.7425" lon="3.81193">
        <ele>263.54</ele>
        <time>2014-08-17T13:01:15Z</time>
      </trkpt>
      <trkpt lat="43.74255" lon="3.81192">
        <ele>263.54</ele>
        <time>2014-08-17T13:01:24Z</time>
      </trkpt>
      <trkpt lat="43.74255" lon="3.81192">
        <ele>255.85</ele>
        <time>2014-08-17T13:04:09Z</time>
      </trkpt>
      <trkpt lat="43.74252" lon="3.81191">
        <ele>264.02</ele>
        <time>2014-08-17T13:14:22Z</time>
      </trkpt>
      <trkpt lat="43.74271" lon="3.81196">
        <ele>265.46</ele>
        <time>2014-08-17T13:14:39Z</time>
      </trkpt>
      <trkpt lat="43.743" lon="3.81204">
        <ele>266.42</ele>
        <time>2014-08-17T13:15:00Z</time>
      </trkpt>
      <trkpt lat="43.74321" lon="3.812">
        <ele>267.38</ele>
        <time>2014-08-17T13:15:16Z</time>
      </trkpt>
      <trkpt lat="43.74337" lon="3.81181">
        <ele>268.83</ele>
        <time>2014-08-17T13:15:32Z</time>
      </trkpt>
      <trkpt lat="43.74355" lon="3.81189">
        <ele>267.86</ele>
        <time>2014-08-17T13:15:46Z</time>
      </trkpt>
      <trkpt lat="43.74359" lon="3.81191">
        <ele>266.9</ele>
        <time>2014-08-17T13:15:49Z</time>
      </trkpt>
      <trkpt lat="43.74364" lon="3.81199">
        <ele>266.42</ele>
        <time>2014-08-17T13:15:54Z</time>
      </trkpt>
      <trkpt lat="43.74372" lon="3.81202">
        <ele>265.94</ele>
        <time>2014-08-17T13:16:00Z</time>
      </trkpt>
      <trkpt lat="43.74394" lon="3.81202">
        <ele>264.98</ele>
        <time>2014-08-17T13:16:18Z</time>
      </trkpt>
      <trkpt lat="43.74394" lon="3.81202">
        <ele>264.5</ele>
        <time>2014-08-17T13:16:25Z</time>
      </trkpt>
      <trkpt lat="43.74399" lon="3.81205">
        <ele>263.06</ele>
        <time>2014-08-17T13:16:28Z</time>
      </trkpt>
      <trkpt lat="43.744" lon="3.81206">
        <ele>263.54</ele>
        <time>2014-08-17T13:16:29Z</time>
      </trkpt>
      <trkpt lat="43.74401" lon="3.81207">
        <ele>263.06</ele>
        <time>2014-08-17T13:16:30Z</time>
      </trkpt>
      <trkpt lat="43.74403" lon="3.81208">
        <ele>263.06</ele>
        <time>2014-08-17T13:16:31Z</time>
      </trkpt>
      <trkpt lat="43.74404" lon="3.81209">
        <ele>262.58</ele>
        <time>2014-08-17T13:16:32Z</time>
      </trkpt>
      <trkpt lat="43.74405" lon="3.8121">
        <ele>262.58</ele>
        <time>2014-08-17T13:16:33Z</time>
      </trkpt>
      <trkpt lat="43.74424" lon="3.81227">
        <ele>260.65</ele>
        <time>2014-08-17T13:16:49Z</time>
      </trkpt>
      <trkpt lat="43.74445" lon="3.81241">
        <ele>259.69</ele>
        <time>2014-08-17T13:17:05Z</time>
      </trkpt>
      <trkpt lat="43.74464" lon="3.81257">
        <ele>259.21</ele>
        <time>2014-08-17T13:17:21Z</time>
      </trkpt>
      <trkpt lat="43.74465" lon="3.81257">
        <ele>259.21</ele>
        <time>2014-08-17T13:17:34Z</time>
      </trkpt>
      <trkpt lat="43.74464" lon="3.81258">
        <ele>259.69</ele>
        <time>2014-08-17T13:17:39Z</time>
      </trkpt>
      <trkpt lat="43.74464" lon="3.81258">
        <ele>259.69</ele>
        <time>2014-08-17T13:18:14Z</time>
      </trkpt>
      <trkpt lat="43.74465" lon="3.81256">
        <ele>259.21</ele>
        <time>2014-08-17T13:18:15Z</time>
      </trkpt>
      <trkpt lat="43.74465" lon="3.81255">
        <ele>259.69</ele>
        <time>2014-08-17T13:18:19Z</time>
      </trkpt>
      <trkpt lat="43.74491" lon="3.81274">
        <ele>259.69</ele>
        <time>2014-08-17T13:18:39Z</time>
      </trkpt>
      <trkpt lat="43.74495" lon="3.81277">
        <ele>258.25</ele>
        <time>2014-08-17T13:18:47Z</time>
      </trkpt>
      <trkpt lat="43.74503" lon="3.81279">
        <ele>260.17</ele>
        <time>2014-08-17T13:19:18Z</time>
      </trkpt>
      <trkpt lat="43.74779" lon="3.81249">
        <ele>269.79</ele>
        <time>2014-08-17T14:20:29Z</time>
      </trkpt>
      <trkpt lat="43.74776" lon="3.81262">
        <ele>268.35</ele>
        <time>2014-08-17T14:20:37Z</time>
      </trkpt>
      <trkpt lat="43.74769" lon="3.81281">
        <ele>268.35</ele>
        <time>2014-08-17T14:20:52Z</time>
      </trkpt>
      <trkpt lat="43.74768" lon="3.81285">
        <ele>268.35</ele>
        <time>2014-08-17T14:20:55Z</time>
      </trkpt>
      <trkpt lat="43.7477" lon="3.81295">
        <ele>267.86</ele>
        <time>2014-08-17T14:21:01Z</time>
      </trkpt>
      <trkpt lat="43.74757" lon="3.81317">
        <ele>268.83</ele>
        <time>2014-08-17T14:21:17Z</time>
      </trkpt>
      <trkpt lat="43.74749" lon="3.81335">
        <ele>268.35</ele>
        <time>2014-08-17T14:21:31Z</time>
      </trkpt>
      <trkpt lat="43.74747" lon="3.81339">
        <ele>268.35</ele>
        <time>2014-08-17T14:21:33Z</time>
      </trkpt>
      <trkpt lat="43.74735" lon="3.81364">
        <ele>268.35</ele>
        <time>2014-08-17T14:21:50Z</time>
      </trkpt>
      <trkpt lat="43.74725" lon="3.8139">
        <ele>266.42</ele>
        <time>2014-08-17T14:22:07Z</time>
      </trkpt>
      <trkpt lat="43.74721" lon="3.814">
        <ele>266.42</ele>
        <time>2014-08-17T14:22:13Z</time>
      </trkpt>
      <trkpt lat="43.74723" lon="3.81406">
        <ele>265.94</ele>
        <time>2014-08-17T14:22:17Z</time>
      </trkpt>
      <trkpt lat="43.74721" lon="3.81414">
        <ele>265.46</ele>
        <time>2014-08-17T14:22:22Z</time>
      </trkpt>
      <trkpt lat="43.74719" lon="3.81422">
        <ele>264.02</ele>
        <time>2014-08-17T14:22:29Z</time>
      </trkpt>
      <trkpt lat="43.74719" lon="3.81446">
        <ele>260.65</ele>
        <time>2014-08-17T14:22:44Z</time>
      </trkpt>
      <trkpt lat="43.74719" lon="3.81454">
        <ele>259.69</ele>
        <time>2014-08-17T14:22:49Z</time>
      </trkpt>
      <trkpt lat="43.74702" lon="3.81473">
        <ele>256.33</ele>
        <time>2014-08-17T14:23:08Z</time>
      </trkpt>
      <trkpt lat="43.74693" lon="3.81491">
        <ele>253.44</ele>
        <time>2014-08-17T14:23:21Z</time>
      </trkpt>
      <trkpt lat="43.74692" lon="3.81492">
        <ele>253.44</ele>
        <time>2014-08-17T14:23:22Z</time>
      </trkpt>
      <trkpt lat="43.74683" lon="3.81496">
        <ele>251.52</ele>
        <time>2014-08-17T14:23:30Z</time>
      </trkpt>
      <trkpt lat="43.74677" lon="3.81509">
        <ele>249.12</ele>
        <time>2014-08-17T14:23:39Z</time>
      </trkpt>
      <trkpt lat="43.74671" lon="3.81514">
        <ele>247.68</ele>
        <time>2014-08-17T14:23:44Z</time>
      </trkpt>
      <trkpt lat="43.74668" lon="3.81515">
        <ele>247.2</ele>
        <time>2014-08-17T14:23:47Z</time>
      </trkpt>
      <trkpt lat="43.74656" lon="3.81526">
        <ele>243.83</ele>
        <time>2014-08-17T14:23:59Z</time>
      </trkpt>
      <trkpt lat="43.74644" lon="3.81531">
        <ele>240.95</ele>
        <time>2014-08-17T14:24:11Z</time>
      </trkpt>
      <trkpt lat="43.7464" lon="3.81533">
        <ele>239.51</ele>
        <time>2014-08-17T14:24:18Z</time>
      </trkpt>
      <trkpt lat="43.74633" lon="3.81536">
        <ele>238.06</ele>
        <time>2014-08-17T14:24:25Z</time>
      </trkpt>
      <trkpt lat="43.74629" lon="3.81538">
        <ele>237.1</ele>
        <time>2014-08-17T14:24:29Z</time>
      </trkpt>
      <trkpt lat="43.74618" lon="3.8154">
        <ele>233.74</ele>
        <time>2014-08-17T14:24:40Z</time>
      </trkpt>
      <trkpt lat="43.74605" lon="3.81547">
        <ele>231.33</ele>
        <time>2014-08-17T14:24:54Z</time>
      </trkpt>
      <trkpt lat="43.74601" lon="3.81549">
        <ele>230.37</ele>
        <time>2014-08-17T14:24:58Z</time>
      </trkpt>
      <trkpt lat="43.74592" lon="3.81554">
        <ele>227.49</ele>
        <time>2014-08-17T14:25:10Z</time>
      </trkpt>
      <trkpt lat="43.74582" lon="3.81561">
        <ele>224.12</ele>
        <time>2014-08-17T14:25:21Z</time>
      </trkpt>
      <trkpt lat="43.74569" lon="3.81575">
        <ele>221.24</ele>
        <time>2014-08-17T14:25:38Z</time>
      </trkpt>
      <trkpt lat="43.74557" lon="3.81587">
        <ele>218.36</ele>
        <time>2014-08-17T14:25:52Z</time>
      </trkpt>
      <trkpt lat="43.74544" lon="3.81598">
        <ele>215.47</ele>
        <time>2014-08-17T14:26:06Z</time>
      </trkpt>
      <trkpt lat="43.7453" lon="3.81608">
        <ele>213.07</ele>
        <time>2014-08-17T14:26:22Z</time>
      </trkpt>
      <trkpt lat="43.74528" lon="3.8161">
        <ele>212.59</ele>
        <time>2014-08-17T14:26:24Z</time>
      </trkpt>
      <trkpt lat="43.74519" lon="3.81618">
        <ele>211.15</ele>
        <time>2014-08-17T14:26:34Z</time>
      </trkpt>
      <trkpt lat="43.74505" lon="3.81626">
        <ele>209.22</ele>
        <time>2014-08-17T14:26:48Z</time>
      </trkpt>
      <trkpt lat="43.74504" lon="3.81627">
        <ele>208.74</ele>
        <time>2014-08-17T14:26:50Z</time>
      </trkpt>
      <trkpt lat="43.74497" lon="3.81638">
        <ele>206.82</ele>
        <time>2014-08-17T14:27:01Z</time>
      </trkpt>
      <trkpt lat="43.74488" lon="3.81647">
        <ele>203.94</ele>
        <time>2014-08-17T14:27:14Z</time>
      </trkpt>
      <trkpt lat="43.74487" lon="3.81647">
        <ele>203.94</ele>
        <time>2014-08-17T14:27:15Z</time>
      </trkpt>
      <trkpt lat="43.74478" lon="3.81659">
        <ele>201.53</ele>
        <time>2014-08-17T14:27:28Z</time>
      </trkpt>
      <trkpt lat="43.74473" lon="3.81663">
        <ele>199.61</ele>
        <time>2014-08-17T14:27:41Z</time>
      </trkpt>
      <trkpt lat="43.74474" lon="3.81665">
        <ele>199.61</ele>
        <time>2014-08-17T14:28:00Z</time>
      </trkpt>
      <trkpt lat="43.74472" lon="3.81664">
        <ele>200.09</ele>
        <time>2014-08-17T14:28:14Z</time>
      </trkpt>
      <trkpt lat="43.74471" lon="3.81664">
        <ele>199.61</ele>
        <time>2014-08-17T14:28:31Z</time>
      </trkpt>
      <trkpt lat="43.74472" lon="3.81663">
        <ele>199.61</ele>
        <time>2014-08-17T14:28:53Z</time>
      </trkpt>
      <trkpt lat="43.74474" lon="3.81661">
        <ele>200.09</ele>
        <time>2014-08-17T14:29:04Z</time>
      </trkpt>
      <trkpt lat="43.74474" lon="3.81661">
        <ele>200.09</ele>
        <time>2014-08-17T14:29:31Z</time>
      </trkpt>
      <trkpt lat="43.74473" lon="3.81662">
        <ele>200.09</ele>
        <time>2014-08-17T14:29:46Z</time>
      </trkpt>
      <trkpt lat="43.74471" lon="3.81661">
        <ele>200.09</ele>
        <time>2014-08-17T14:29:54Z</time>
      </trkpt>
      <trkpt lat="43.74471" lon="3.81662">
        <ele>200.09</ele>
        <time>2014-08-17T14:30:01Z</time>
      </trkpt>
      <trkpt lat="43.74472" lon="3.81663">
        <ele>200.09</ele>
        <time>2014-08-17T14:30:11Z</time>
      </trkpt>
      <trkpt lat="43.74473" lon="3.81663">
        <ele>199.61</ele>
        <time>2014-08-17T14:30:14Z</time>
      </trkpt>
      <trkpt lat="43.74474" lon="3.81664">
        <ele>199.61</ele>
        <time>2014-08-17T14:30:25Z</time>
      </trkpt>
      <trkpt lat="43.74473" lon="3.81664">
        <ele>199.61</ele>
        <time>2014-08-17T14:30:40Z</time>
      </trkpt>
      <trkpt lat="43.74474" lon="3.81662">
        <ele>199.13</ele>
        <time>2014-08-17T14:31:00Z</time>
      </trkpt>
      <trkpt lat="43.74472" lon="3.81664">
        <ele>199.13</ele>
        <time>2014-08-17T14:31:12Z</time>
      </trkpt>
      <trkpt lat="43.74471" lon="3.81665">
        <ele>198.65</ele>
        <time>2014-08-17T14:31:13Z</time>
      </trkpt>
      <trkpt lat="43.7447" lon="3.81666">
        <ele>198.65</ele>
        <time>2014-08-17T14:31:14Z</time>
      </trkpt>
      <trkpt lat="43.74469" lon="3.81667">
        <ele>198.65</ele>
        <time>2014-08-17T14:31:15Z</time>
      </trkpt>
      <trkpt lat="43.74467" lon="3.81668">
        <ele>198.17</ele>
        <time>2014-08-17T14:31:16Z</time>
      </trkpt>
      <trkpt lat="43.74442" lon="3.81681">
        <ele>196.25</ele>
        <time>2014-08-17T14:31:33Z</time>
      </trkpt>
      <trkpt lat="43.74425" lon="3.8169">
        <ele>193.84</ele>
        <time>2014-08-17T14:31:47Z</time>
      </trkpt>
      <trkpt lat="43.74413" lon="3.817">
        <ele>190.96</ele>
        <time>2014-08-17T14:32:04Z</time>
      </trkpt>
      <trkpt lat="43.74387" lon="3.81711">
        <ele>189.04</ele>
        <time>2014-08-17T14:32:19Z</time>
      </trkpt>
      <trkpt lat="43.74362" lon="3.81711">
        <ele>187.11</ele>
        <time>2014-08-17T14:32:33Z</time>
      </trkpt>
      <trkpt lat="43.74341" lon="3.81723">
        <ele>184.23</ele>
        <time>2014-08-17T14:32:47Z</time>
      </trkpt>
      <trkpt lat="43.74329" lon="3.81729">
        <ele>181.83</ele>
        <time>2014-08-17T14:33:01Z</time>
      </trkpt>
      <trkpt lat="43.74317" lon="3.81732">
        <ele>180.87</ele>
        <time>2014-08-17T14:33:15Z</time>
      </trkpt>
      <trkpt lat="43.74297" lon="3.81733">
        <ele>178.94</ele>
        <time>2014-08-17T14:33:31Z</time>
      </trkpt>
      <trkpt lat="43.74276" lon="3.81742">
        <ele>176.06</ele>
        <time>2014-08-17T14:33:47Z</time>
      </trkpt>
      <trkpt lat="43.74254" lon="3.81749">
        <ele>174.14</ele>
        <time>2014-08-17T14:34:00Z</time>
      </trkpt>
      <trkpt lat="43.74246" lon="3.81755">
        <ele>172.69</ele>
        <time>2014-08-17T14:34:07Z</time>
      </trkpt>
      <trkpt lat="43.74245" lon="3.81756">
        <ele>172.69</ele>
        <time>2014-08-17T14:34:08Z</time>
      </trkpt>
      <trkpt lat="43.74226" lon="3.81747">
        <ele>169.33</ele>
        <time>2014-08-17T14:34:24Z</time>
      </trkpt>
      <trkpt lat="43.74218" lon="3.81744">
        <ele>168.85</ele>
        <time>2014-08-17T14:34:31Z</time>
      </trkpt>
      <trkpt lat="43.74217" lon="3.81745">
        <ele>168.37</ele>
        <time>2014-08-17T14:34:32Z</time>
      </trkpt>
      <trkpt lat="43.74204" lon="3.81767">
        <ele>165.96</ele>
        <time>2014-08-17T14:34:48Z</time>
      </trkpt>
      <trkpt lat="43.74204" lon="3.81769">
        <ele>166.45</ele>
        <time>2014-08-17T14:34:49Z</time>
      </trkpt>
      <trkpt lat="43.74196" lon="3.81785">
        <ele>165</ele>
        <time>2014-08-17T14:34:59Z</time>
      </trkpt>
      <trkpt lat="43.74195" lon="3.81786">
        <ele>164.52</ele>
        <time>2014-08-17T14:35:00Z</time>
      </trkpt>
      <trkpt lat="43.74177" lon="3.81792">
        <ele>162.12</ele>
        <time>2014-08-17T14:35:14Z</time>
      </trkpt>
      <trkpt lat="43.7416" lon="3.81802">
        <ele>159.24</ele>
        <time>2014-08-17T14:35:28Z</time>
      </trkpt>
      <trkpt lat="43.74141" lon="3.81801">
        <ele>155.87</ele>
        <time>2014-08-17T14:35:42Z</time>
      </trkpt>
      <trkpt lat="43.74139" lon="3.81801">
        <ele>155.87</ele>
        <time>2014-08-17T14:35:43Z</time>
      </trkpt>
      <trkpt lat="43.74138" lon="3.81801">
        <ele>155.87</ele>
        <time>2014-08-17T14:35:44Z</time>
      </trkpt>
      <trkpt lat="43.7412" lon="3.81798">
        <ele>153.47</ele>
        <time>2014-08-17T14:35:58Z</time>
      </trkpt>
      <trkpt lat="43.74119" lon="3.81798">
        <ele>153.47</ele>
        <time>2014-08-17T14:35:59Z</time>
      </trkpt>
      <trkpt lat="43.74118" lon="3.81798">
        <ele>153.47</ele>
        <time>2014-08-17T14:36:00Z</time>
      </trkpt>
      <trkpt lat="43.74117" lon="3.81798">
        <ele>153.47</ele>
        <time>2014-08-17T14:36:01Z</time>
      </trkpt>
      <trkpt lat="43.74116" lon="3.81799">
        <ele>152.99</ele>
        <time>2014-08-17T14:36:02Z</time>
      </trkpt>
      <trkpt lat="43.74106" lon="3.81806">
        <ele>152.03</ele>
        <time>2014-08-17T14:36:11Z</time>
      </trkpt>
      <trkpt lat="43.74102" lon="3.8182">
        <ele>150.58</ele>
        <time>2014-08-17T14:36:19Z</time>
      </trkpt>
      <trkpt lat="43.74092" lon="3.81841">
        <ele>148.18</ele>
        <time>2014-08-17T14:36:33Z</time>
      </trkpt>
      <trkpt lat="43.74083" lon="3.81855">
        <ele>146.74</ele>
        <time>2014-08-17T14:36:43Z</time>
      </trkpt>
      <trkpt lat="43.74083" lon="3.81856">
        <ele>146.74</ele>
        <time>2014-08-17T14:36:44Z</time>
      </trkpt>
      <trkpt lat="43.74062" lon="3.81874">
        <ele>144.34</ele>
        <time>2014-08-17T14:37:01Z</time>
      </trkpt>
      <trkpt lat="43.74055" lon="3.81879">
        <ele>143.37</ele>
        <time>2014-08-17T14:37:07Z</time>
      </trkpt>
      <trkpt lat="43.74046" lon="3.81889">
        <ele>141.45</ele>
        <time>2014-08-17T14:37:17Z</time>
      </trkpt>
      <trkpt lat="43.74046" lon="3.81891">
        <ele>141.45</ele>
        <time>2014-08-17T14:37:18Z</time>
      </trkpt>
      <trkpt lat="43.74045" lon="3.81899">
        <ele>141.45</ele>
        <time>2014-08-17T14:37:22Z</time>
      </trkpt>
      <trkpt lat="43.74045" lon="3.819">
        <ele>140.97</ele>
        <time>2014-08-17T14:37:23Z</time>
      </trkpt>
      <trkpt lat="43.74039" lon="3.81911">
        <ele>140.49</ele>
        <time>2014-08-17T14:37:32Z</time>
      </trkpt>
      <trkpt lat="43.74038" lon="3.81913">
        <ele>140.49</ele>
        <time>2014-08-17T14:37:33Z</time>
      </trkpt>
      <trkpt lat="43.74038" lon="3.81915">
        <ele>140.49</ele>
        <time>2014-08-17T14:37:34Z</time>
      </trkpt>
      <trkpt lat="43.74038" lon="3.81931">
        <ele>139.53</ele>
        <time>2014-08-17T14:37:44Z</time>
      </trkpt>
      <trkpt lat="43.74038" lon="3.81933">
        <ele>138.57</ele>
        <time>2014-08-17T14:37:45Z</time>
      </trkpt>
      <trkpt lat="43.74039" lon="3.8194">
        <ele>138.57</ele>
        <time>2014-08-17T14:37:49Z</time>
      </trkpt>
      <trkpt lat="43.7404" lon="3.81942">
        <ele>138.09</ele>
        <time>2014-08-17T14:37:50Z</time>
      </trkpt>
      <trkpt lat="43.74038" lon="3.81959">
        <ele>137.61</ele>
        <time>2014-08-17T14:38:01Z</time>
      </trkpt>
      <trkpt lat="43.74036" lon="3.81959">
        <ele>136.64</ele>
        <time>2014-08-17T14:38:02Z</time>
      </trkpt>
      <trkpt lat="43.7403" lon="3.81961">
        <ele>136.64</ele>
        <time>2014-08-17T14:38:17Z</time>
      </trkpt>
      <trkpt lat="43.74025" lon="3.8196">
        <ele>136.16</ele>
        <time>2014-08-17T14:38:37Z</time>
      </trkpt>
      <trkpt lat="43.74021" lon="3.81957">
        <ele>135.68</ele>
        <time>2014-08-17T14:38:43Z</time>
      </trkpt>
      <trkpt lat="43.74018" lon="3.81956">
        <ele>135.2</ele>
        <time>2014-08-17T14:38:45Z</time>
      </trkpt>
      <trkpt lat="43.74002" lon="3.81935">
        <ele>134.72</ele>
        <time>2014-08-17T14:39:01Z</time>
      </trkpt>
      <trkpt lat="43.74002" lon="3.81933">
        <ele>134.72</ele>
        <time>2014-08-17T14:39:02Z</time>
      </trkpt>
      <trkpt lat="43.73998" lon="3.81927">
        <ele>133.28</ele>
        <time>2014-08-17T14:39:06Z</time>
      </trkpt>
      <trkpt lat="43.73997" lon="3.81925">
        <ele>133.76</ele>
        <time>2014-08-17T14:39:19Z</time>
      </trkpt>
      <trkpt lat="43.73988" lon="3.81906">
        <ele>131.84</ele>
        <time>2014-08-17T14:39:37Z</time>
      </trkpt>
      <trkpt lat="43.7397" lon="3.81891">
        <ele>129.92</ele>
        <time>2014-08-17T14:39:51Z</time>
      </trkpt>
      <trkpt lat="43.73955" lon="3.81881">
        <ele>128.47</ele>
        <time>2014-08-17T14:40:04Z</time>
      </trkpt>
      <trkpt lat="43.73945" lon="3.81864">
        <ele>127.51</ele>
        <time>2014-08-17T14:40:15Z</time>
      </trkpt>
      <trkpt lat="43.73944" lon="3.81864">
        <ele>127.99</ele>
        <time>2014-08-17T14:40:16Z</time>
      </trkpt>
      <trkpt lat="43.73943" lon="3.81863">
        <ele>127.51</ele>
        <time>2014-08-17T14:40:17Z</time>
      </trkpt>
      <trkpt lat="43.73941" lon="3.81859">
        <ele>127.99</ele>
        <time>2014-08-17T14:40:25Z</time>
      </trkpt>
      <trkpt lat="43.73943" lon="3.81858">
        <ele>127.99</ele>
        <time>2014-08-17T14:40:27Z</time>
      </trkpt>
      <trkpt lat="43.73943" lon="3.81857">
        <ele>127.51</ele>
        <time>2014-08-17T14:40:30Z</time>
      </trkpt>
      <trkpt lat="43.73942" lon="3.81858">
        <ele>127.99</ele>
        <time>2014-08-17T14:40:31Z</time>
      </trkpt>
      <trkpt lat="43.73936" lon="3.81858">
        <ele>127.99</ele>
        <time>2014-08-17T14:40:35Z</time>
      </trkpt>
      <trkpt lat="43.73935" lon="3.81858">
        <ele>127.51</ele>
        <time>2014-08-17T14:40:36Z</time>
      </trkpt>
      <trkpt lat="43.73917" lon="3.81851">
        <ele>126.07</ele>
        <time>2014-08-17T14:40:51Z</time>
      </trkpt>
      <trkpt lat="43.73897" lon="3.81843">
        <ele>125.59</ele>
        <time>2014-08-17T14:41:05Z</time>
      </trkpt>
      <trkpt lat="43.73878" lon="3.81824">
        <ele>124.63</ele>
        <time>2014-08-17T14:41:22Z</time>
      </trkpt>
      <trkpt lat="43.73857" lon="3.81803">
        <ele>122.71</ele>
        <time>2014-08-17T14:41:37Z</time>
      </trkpt>
      <trkpt lat="43.73844" lon="3.81783">
        <ele>121.26</ele>
        <time>2014-08-17T14:41:51Z</time>
      </trkpt>
      <trkpt lat="43.73826" lon="3.81759">
        <ele>119.82</ele>
        <time>2014-08-17T14:42:07Z</time>
      </trkpt>
      <trkpt lat="43.73819" lon="3.8173">
        <ele>120.78</ele>
        <time>2014-08-17T14:42:22Z</time>
      </trkpt>
      <trkpt lat="43.73808" lon="3.81713">
        <ele>119.34</ele>
        <time>2014-08-17T14:42:34Z</time>
      </trkpt>
      <trkpt lat="43.7379" lon="3.81696">
        <ele>120.3</ele>
        <time>2014-08-17T14:42:50Z</time>
      </trkpt>
      <trkpt lat="43.7377" lon="3.81685">
        <ele>119.82</ele>
        <time>2014-08-17T14:43:07Z</time>
      </trkpt>
      <trkpt lat="43.73754" lon="3.81673">
        <ele>120.3</ele>
        <time>2014-08-17T14:43:22Z</time>
      </trkpt>
      <trkpt lat="43.73753" lon="3.81671">
        <ele>119.82</ele>
        <time>2014-08-17T14:43:23Z</time>
      </trkpt>
      <trkpt lat="43.7374" lon="3.81653">
        <ele>119.82</ele>
        <time>2014-08-17T14:43:38Z</time>
      </trkpt>
      <trkpt lat="43.73737" lon="3.81647">
        <ele>119.34</ele>
        <time>2014-08-17T14:43:42Z</time>
      </trkpt>
      <trkpt lat="43.73724" lon="3.81625">
        <ele>120.3</ele>
        <time>2014-08-17T14:43:56Z</time>
      </trkpt>
      <trkpt lat="43.73707" lon="3.81601">
        <ele>121.26</ele>
        <time>2014-08-17T14:44:12Z</time>
      </trkpt>
      <trkpt lat="43.73688" lon="3.81573">
        <ele>120.78</ele>
        <time>2014-08-17T14:44:31Z</time>
      </trkpt>
      <trkpt lat="43.73671" lon="3.81551">
        <ele>120.3</ele>
        <time>2014-08-17T14:44:47Z</time>
      </trkpt>
      <trkpt lat="43.73654" lon="3.81527">
        <ele>120.3</ele>
        <time>2014-08-17T14:45:03Z</time>
      </trkpt>
      <trkpt lat="43.73631" lon="3.81519">
        <ele>120.3</ele>
        <time>2014-08-17T14:45:20Z</time>
      </trkpt>
      <trkpt lat="43.73608" lon="3.8152">
        <ele>120.3</ele>
        <time>2014-08-17T14:45:36Z</time>
      </trkpt>
      <trkpt lat="43.73585" lon="3.8152">
        <ele>120.78</ele>
        <time>2014-08-17T14:45:53Z</time>
      </trkpt>
      <trkpt lat="43.73582" lon="3.81518">
        <ele>120.3</ele>
        <time>2014-08-17T14:46:09Z</time>
      </trkpt>
      <trkpt lat="43.73572" lon="3.8151">
        <ele>120.78</ele>
        <time>2014-08-17T14:46:17Z</time>
      </trkpt>
      <trkpt lat="43.73572" lon="3.81508">
        <ele>120.78</ele>
        <time>2014-08-17T14:46:18Z</time>
      </trkpt>
      <trkpt lat="43.73569" lon="3.81505">
        <ele>120.78</ele>
        <time>2014-08-17T14:46:21Z</time>
      </trkpt>
      <trkpt lat="43.73568" lon="3.81504">
        <ele>121.26</ele>
        <time>2014-08-17T14:46:22Z</time>
      </trkpt>
      <trkpt lat="43.73567" lon="3.81503">
        <ele>121.26</ele>
        <time>2014-08-17T14:46:23Z</time>
      </trkpt>
      <trkpt lat="43.73564" lon="3.81499">
        <ele>120.78</ele>
        <time>2014-08-17T14:46:27Z</time>
      </trkpt>
      <trkpt lat="43.73564" lon="3.81498">
        <ele>121.26</ele>
        <time>2014-08-17T14:46:28Z</time>
      </trkpt>
      <trkpt lat="43.73562" lon="3.8149">
        <ele>121.74</ele>
        <time>2014-08-17T14:46:39Z</time>
      </trkpt>
      <trkpt lat="43.7356" lon="3.81489">
        <ele>122.22</ele>
        <time>2014-08-17T14:47:09Z</time>
      </trkpt>
      <trkpt lat="43.73561" lon="3.81488">
        <ele>122.71</ele>
        <time>2014-08-17T14:47:32Z</time>
      </trkpt>
      <trkpt lat="43.73563" lon="3.81488">
        <ele>122.71</ele>
        <time>2014-08-17T14:48:08Z</time>
      </trkpt>
      <trkpt lat="43.73564" lon="3.81489">
        <ele>122.71</ele>
        <time>2014-08-17T14:48:36Z</time>
      </trkpt>
      <trkpt lat="43.73561" lon="3.81489">
        <ele>122.22</ele>
        <time>2014-08-17T14:49:10Z</time>
      </trkpt>
    </trkseg>
  </trk>
</gpx>